Terminal Aerodrome Forecast
Issued by NWS

Home | Current Version | Previous Version | Text Only | Print | Product List | Glossary On
Versions: 1 2 3 4 5 6 7 8 9 10 11 12 13 14 15 16 17 18 19 20 21 22 23 24 25 26 27 28 29 30 31 32 33
000
FTUS44 KHGX 181810 AAA
TAFIAH
TAF AMD
KIAH 181810Z 1818/1924 27014G24KT P6SM SCT028 BKN040
     FM182100 31015G25KT P6SM BKN050
     FM182300 35012G22KT P6SM FEW250
     FM190800 36011KT P6SM SKC
     FM191700 02015KT P6SM SKC=

USA.gov is the U.S. government's official web portal to all federal, state and local government web resources and services.